sensor_id;sensor_type;location;lat;lon;timestamp;temperature;humidity
47354;DHT22;50657;48.830;2.282;2022-08-21T00:02:25;25.50;41.60
47354;DHT22;50657;48.830;2.282;2022-08-21T00:04:53;25.50;41.70
47354;DHT22;50657;48.830;2.282;2022-08-21T00:07:21;25.50;41.80
47354;DHT22;50657;48.830;2.282;2022-08-21T00:09:48;25.50;41.80
47354;DHT22;50657;48.830;2.282;2022-08-21T00:12:16;25.50;41.90
47354;DHT22;50657;48.830;2.282;2022-08-21T00:14:43;25.40;41.90
47354;DHT22;50657;48.830;2.282;2022-08-21T00:17:11;25.40;42.00
47354;DHT22;50657;48.830;2.282;2022-08-21T00:19:39;25.40;42.10
47354;DHT22;50657;48.830;2.282;2022-08-21T00:22:06;25.40;42.20
47354;DHT22;50657;48.830;2.282;2022-08-21T00:24:33;25.30;42.20
47354;DHT22;50657;48.830;2.282;2022-08-21T00:27:00;25.30;42.20
47354;DHT22;50657;48.830;2.282;2022-08-21T00:29:28;25.30;42.30
47354;DHT22;50657;48.830;2.282;2022-08-21T00:31:56;25.30;42.40
47354;DHT22;50657;48.830;2.282;2022-08-21T00:34:23;25.30;42.40
47354;DHT22;50657;48.830;2.282;2022-08-21T00:36:50;25.20;42.50
47354;DHT22;50657;48.830;2.282;2022-08-21T00:39:17;25.20;42.60
47354;DHT22;50657;48.830;2.282;2022-08-21T00:41:44;25.20;42.60
47354;DHT22;50657;48.830;2.282;2022-08-21T00:44:13;25.20;43.30
47354;DHT22;50657;48.830;2.282;2022-08-21T00:46:42;25.20;42.80
47354;DHT22;50657;48.830;2.282;2022-08-21T00:49:10;25.10;42.80
47354;DHT22;50657;48.830;2.282;2022-08-21T00:51:44;25.20;42.90
47354;DHT22;50657;48.830;2.282;2022-08-21T00:54:13;25.20;42.90
47354;DHT22;50657;48.830;2.282;2022-08-21T00:56:42;25.10;42.90
47354;DHT22;50657;48.830;2.282;2022-08-21T00:59:09;25.10;43.00
47354;DHT22;50657;48.830;2.282;2022-08-21T01:01:37;25.00;43.00
47354;DHT22;50657;48.830;2.282;2022-08-21T01:04:05;25.10;43.20
47354;DHT22;50657;48.830;2.282;2022-08-21T01:06:32;25.00;43.20
47354;DHT22;50657;48.830;2.282;2022-08-21T01:09:00;25.00;43.30
47354;DHT22;50657;48.830;2.282;2022-08-21T01:11:28;25.00;43.30
47354;DHT22;50657;48.830;2.282;2022-08-21T01:13:55;25.00;43.40
47354;DHT22;50657;48.830;2.282;2022-08-21T01:16:22;24.90;43.50
47354;DHT22;50657;48.830;2.282;2022-08-21T01:18:50;24.90;43.60
47354;DHT22;50657;48.830;2.282;2022-08-21T01:21:20;25.00;43.70
47354;DHT22;50657;48.830;2.282;2022-08-21T01:23:51;24.90;43.70
47354;DHT22;50657;48.830;2.282;2022-08-21T01:26:22;24.90;43.70
47354;DHT22;50657;48.830;2.282;2022-08-21T01:28:52;24.90;43.80
47354;DHT22;50657;48.830;2.282;2022-08-21T01:31:24;24.90;43.90
47354;DHT22;50657;48.830;2.282;2022-08-21T01:33:53;24.90;43.90
47354;DHT22;50657;48.830;2.282;2022-08-21T01:36:21;24.80;44.00
47354;DHT22;50657;48.830;2.282;2022-08-21T01:38:49;24.80;44.10
47354;DHT22;50657;48.830;2.282;2022-08-21T01:41:16;24.80;44.20
47354;DHT22;50657;48.830;2.282;2022-08-21T01:43:44;24.80;44.30
47354;DHT22;50657;48.830;2.282;2022-08-21T01:46:11;24.70;44.40
47354;DHT22;50657;48.830;2.282;2022-08-21T01:48:39;24.70;44.50
47354;DHT22;50657;48.830;2.282;2022-08-21T01:51:06;24.70;44.70
47354;DHT22;50657;48.830;2.282;2022-08-21T01:53:35;24.60;44.70
47354;DHT22;50657;48.830;2.282;2022-08-21T01:56:05;24.60;44.80
47354;DHT22;50657;48.830;2.282;2022-08-21T01:58:34;24.60;44.90
47354;DHT22;50657;48.830;2.282;2022-08-21T02:01:02;24.60;45.00
47354;DHT22;50657;48.830;2.282;2022-08-21T02:03:30;24.50;45.00
47354;DHT22;50657;48.830;2.282;2022-08-21T02:05:57;24.50;45.10
47354;DHT22;50657;48.830;2.282;2022-08-21T02:08:24;24.50;45.20
47354;DHT22;50657;48.830;2.282;2022-08-21T02:10:53;24.50;45.30
47354;DHT22;50657;48.830;2.282;2022-08-21T02:13:20;24.40;45.30
47354;DHT22;50657;48.830;2.282;2022-08-21T02:15:47;24.40;45.40
47354;DHT22;50657;48.830;2.282;2022-08-21T02:18:14;24.40;45.60
47354;DHT22;50657;48.830;2.282;2022-08-21T02:20:44;24.40;46.30
47354;DHT22;50657;48.830;2.282;2022-08-21T02:23:12;24.30;45.70
47354;DHT22;50657;48.830;2.282;2022-08-21T02:25:39;24.30;45.80
47354;DHT22;50657;48.830;2.282;2022-08-21T02:28:09;24.30;46.00
47354;DHT22;50657;48.830;2.282;2022-08-21T02:30:39;24.30;46.00
47354;DHT22;50657;48.830;2.282;2022-08-21T02:33:08;24.20;46.10
47354;DHT22;50657;48.830;2.282;2022-08-21T02:35:36;24.20;46.10
47354;DHT22;50657;48.830;2.282;2022-08-21T02:38:06;24.20;46.20
47354;DHT22;50657;48.830;2.282;2022-08-21T02:40:35;24.10;46.20
47354;DHT22;50657;48.830;2.282;2022-08-21T02:43:04;24.10;46.30
47354;DHT22;50657;48.830;2.282;2022-08-21T02:45:34;24.10;46.30
47354;DHT22;50657;48.830;2.282;2022-08-21T02:48:03;24.10;46.40
47354;DHT22;50657;48.830;2.282;2022-08-21T02:50:33;24.10;46.40
47354;DHT22;50657;48.830;2.282;2022-08-21T02:53:01;24.00;46.40
47354;DHT22;50657;48.830;2.282;2022-08-21T02:55:30;24.00;46.50
47354;DHT22;50657;48.830;2.282;2022-08-21T02:57:58;24.00;46.50
47354;DHT22;50657;48.830;2.282;2022-08-21T03:00:27;24.00;46.60
47354;DHT22;50657;48.830;2.282;2022-08-21T03:02:56;24.00;46.70
47354;DHT22;50657;48.830;2.282;2022-08-21T03:05:24;23.90;46.70
47354;DHT22;50657;48.830;2.282;2022-08-21T03:07:52;23.90;46.70
47354;DHT22;50657;48.830;2.282;2022-08-21T03:10:21;23.90;46.80
47354;DHT22;50657;48.830;2.282;2022-08-21T03:12:48;23.90;46.80
47354;DHT22;50657;48.830;2.282;2022-08-21T03:15:18;23.90;46.70
47354;DHT22;50657;48.830;2.282;2022-08-21T03:17:46;23.90;46.70
47354;DHT22;50657;48.830;2.282;2022-08-21T03:20:16;23.90;46.70
47354;DHT22;50657;48.830;2.282;2022-08-21T03:22:44;23.90;46.60
47354;DHT22;50657;48.830;2.282;2022-08-21T03:25:11;23.80;46.60
47354;DHT22;50657;48.830;2.282;2022-08-21T03:27:38;23.80;46.60
47354;DHT22;50657;48.830;2.282;2022-08-21T03:30:07;23.80;46.60
47354;DHT22;50657;48.830;2.282;2022-08-21T03:32:35;23.80;46.60
47354;DHT22;50657;48.830;2.282;2022-08-21T03:35:03;23.80;46.60
47354;DHT22;50657;48.830;2.282;2022-08-21T03:37:32;23.70;46.60
47354;DHT22;50657;48.830;2.282;2022-08-21T03:39:59;23.80;46.80
47354;DHT22;50657;48.830;2.282;2022-08-21T03:42:26;23.70;46.80
47354;DHT22;50657;48.830;2.282;2022-08-21T03:44:53;23.70;46.90
47354;DHT22;50657;48.830;2.282;2022-08-21T03:47:20;23.70;47.00
47354;DHT22;50657;48.830;2.282;2022-08-21T03:49:47;23.70;47.00
47354;DHT22;50657;48.830;2.282;2022-08-21T03:52:15;23.70;47.10
47354;DHT22;50657;48.830;2.282;2022-08-21T03:54:44;23.70;47.10
47354;DHT22;50657;48.830;2.282;2022-08-21T03:57:11;23.70;47.20
47354;DHT22;50657;48.830;2.282;2022-08-21T03:59:38;23.70;47.30
47354;DHT22;50657;48.830;2.282;2022-08-21T04:02:06;23.70;47.30
47354;DHT22;50657;48.830;2.282;2022-08-21T04:04:34;23.70;47.30
47354;DHT22;50657;48.830;2.282;2022-08-21T04:07:02;23.60;47.30
47354;DHT22;50657;48.830;2.282;2022-08-21T04:09:30;23.60;47.40
47354;DHT22;50657;48.830;2.282;2022-08-21T04:11:59;23.60;47.40
47354;DHT22;50657;48.830;2.282;2022-08-21T04:14:26;23.60;47.40
47354;DHT22;50657;48.830;2.282;2022-08-21T04:16:53;23.60;47.50
47354;DHT22;50657;48.830;2.282;2022-08-21T04:19:20;23.60;47.50
47354;DHT22;50657;48.830;2.282;2022-08-21T04:21:48;23.60;47.50
47354;DHT22;50657;48.830;2.282;2022-08-21T04:24:16;23.60;47.60
47354;DHT22;50657;48.830;2.282;2022-08-21T04:26:43;23.50;47.60
47354;DHT22;50657;48.830;2.282;2022-08-21T04:29:11;23.50;47.70
47354;DHT22;50657;48.830;2.282;2022-08-21T04:31:38;23.50;47.80
47354;DHT22;50657;48.830;2.282;2022-08-21T04:34:05;23.50;47.90
47354;DHT22;50657;48.830;2.282;2022-08-21T04:36:32;23.50;47.90
47354;DHT22;50657;48.830;2.282;2022-08-21T04:39:00;23.40;48.00
47354;DHT22;50657;48.830;2.282;2022-08-21T04:41:27;23.40;48.10
47354;DHT22;50657;48.830;2.282;2022-08-21T04:43:55;23.40;48.20
47354;DHT22;50657;48.830;2.282;2022-08-21T04:46:23;23.40;48.20
47354;DHT22;50657;48.830;2.282;2022-08-21T04:48:50;23.40;48.20
47354;DHT22;50657;48.830;2.282;2022-08-21T04:51:21;23.40;48.30
47354;DHT22;50657;48.830;2.282;2022-08-21T04:53:51;23.30;48.30
47354;DHT22;50657;48.830;2.282;2022-08-21T04:56:21;23.30;48.40
47354;DHT22;50657;48.830;2.282;2022-08-21T04:58:49;23.30;48.50
47354;DHT22;50657;48.830;2.282;2022-08-21T05:01:20;23.30;48.50
47354;DHT22;50657;48.830;2.282;2022-08-21T05:03:51;23.30;48.50
47354;DHT22;50657;48.830;2.282;2022-08-21T05:06:19;23.30;48.60
47354;DHT22;50657;48.830;2.282;2022-08-21T05:08:48;23.30;48.70
47354;DHT22;50657;48.830;2.282;2022-08-21T05:11:16;23.30;48.80
47354;DHT22;50657;48.830;2.282;2022-08-21T05:13:43;23.30;48.80
47354;DHT22;50657;48.830;2.282;2022-08-21T05:16:11;23.30;48.90
47354;DHT22;50657;48.830;2.282;2022-08-21T05:18:39;23.30;48.90
47354;DHT22;50657;48.830;2.282;2022-08-21T05:21:07;23.30;48.90
47354;DHT22;50657;48.830;2.282;2022-08-21T05:23:35;23.30;48.80
47354;DHT22;50657;48.830;2.282;2022-08-21T05:26:02;23.40;49.20
47354;DHT22;50657;48.830;2.282;2022-08-21T05:28:30;23.40;49.30
47354;DHT22;50657;48.830;2.282;2022-08-21T05:30:58;23.50;49.40
47354;DHT22;50657;48.830;2.282;2022-08-21T05:33:25;23.60;49.40
47354;DHT22;50657;48.830;2.282;2022-08-21T05:35:53;23.60;49.30
47354;DHT22;50657;48.830;2.282;2022-08-21T05:38:23;23.70;49.30
47354;DHT22;50657;48.830;2.282;2022-08-21T05:40:50;23.70;49.10
47354;DHT22;50657;48.830;2.282;2022-08-21T05:43:17;23.80;49.00
47354;DHT22;50657;48.830;2.282;2022-08-21T05:45:44;23.90;48.90
47354;DHT22;50657;48.830;2.282;2022-08-21T05:48:14;23.90;48.80
47354;DHT22;50657;48.830;2.282;2022-08-21T05:50:41;24.00;48.70
47354;DHT22;50657;48.830;2.282;2022-08-21T05:53:09;24.00;48.50
47354;DHT22;50657;48.830;2.282;2022-08-21T05:55:38;24.10;48.50
47354;DHT22;50657;48.830;2.282;2022-08-21T05:58:05;24.10;48.30
47354;DHT22;50657;48.830;2.282;2022-08-21T06:00:32;24.20;48.20
47354;DHT22;50657;48.830;2.282;2022-08-21T06:02:59;24.20;48.10
47354;DHT22;50657;48.830;2.282;2022-08-21T06:05:27;24.20;48.00
47354;DHT22;50657;48.830;2.282;2022-08-21T06:07:54;24.30;47.80
47354;DHT22;50657;48.830;2.282;2022-08-21T06:10:21;24.30;47.70
47354;DHT22;50657;48.830;2.282;2022-08-21T06:12:54;24.40;48.00
47354;DHT22;50657;48.830;2.282;2022-08-21T06:15:21;24.40;47.50
47354;DHT22;50657;48.830;2.282;2022-08-21T06:17:48;24.40;47.50
47354;DHT22;50657;48.830;2.282;2022-08-21T06:20:15;24.50;47.40
47354;DHT22;50657;48.830;2.282;2022-08-21T06:22:42;24.50;47.30
47354;DHT22;50657;48.830;2.282;2022-08-21T06:25:09;24.60;47.20
47354;DHT22;50657;48.830;2.282;2022-08-21T06:27:37;24.60;47.10
47354;DHT22;50657;48.830;2.282;2022-08-21T06:30:07;24.70;47.10
47354;DHT22;50657;48.830;2.282;2022-08-21T06:32:34;24.70;47.00
47354;DHT22;50657;48.830;2.282;2022-08-21T06:35:02;24.70;46.90
47354;DHT22;50657;48.830;2.282;2022-08-21T06:37:29;24.80;46.80
47354;DHT22;50657;48.830;2.282;2022-08-21T06:39:57;24.80;46.70
47354;DHT22;50657;48.830;2.282;2022-08-21T06:42:24;24.90;46.70
47354;DHT22;50657;48.830;2.282;2022-08-21T06:44:52;24.90;46.50
47354;DHT22;50657;48.830;2.282;2022-08-21T06:47:21;25.00;46.50
47354;DHT22;50657;48.830;2.282;2022-08-21T06:49:48;25.00;46.30
47354;DHT22;50657;48.830;2.282;2022-08-21T06:52:15;25.10;46.30
47354;DHT22;50657;48.830;2.282;2022-08-21T06:54:42;25.10;46.20
47354;DHT22;50657;48.830;2.282;2022-08-21T06:57:10;25.10;46.10
47354;DHT22;50657;48.830;2.282;2022-08-21T06:59:37;25.20;46.10
47354;DHT22;50657;48.830;2.282;2022-08-21T07:02:04;25.30;46.00
47354;DHT22;50657;48.830;2.282;2022-08-21T07:04:32;25.30;45.90
47354;DHT22;50657;48.830;2.282;2022-08-21T07:06:59;25.30;45.90
47354;DHT22;50657;48.830;2.282;2022-08-21T07:09:27;25.30;45.80
47354;DHT22;50657;48.830;2.282;2022-08-21T07:11:55;25.40;45.70
47354;DHT22;50657;48.830;2.282;2022-08-21T07:14:22;25.40;45.60
47354;DHT22;50657;48.830;2.282;2022-08-21T07:16:49;25.40;45.50
47354;DHT22;50657;48.830;2.282;2022-08-21T07:19:17;25.50;45.60
47354;DHT22;50657;48.830;2.282;2022-08-21T07:21:45;25.50;45.40
47354;DHT22;50657;48.830;2.282;2022-08-21T07:24:13;25.50;45.30
47354;DHT22;50657;48.830;2.282;2022-08-21T07:26:40;25.60;45.40
47354;DHT22;50657;48.830;2.282;2022-08-21T07:29:07;25.60;45.20
47354;DHT22;50657;48.830;2.282;2022-08-21T07:31:34;25.60;45.20
47354;DHT22;50657;48.830;2.282;2022-08-21T07:34:02;25.60;45.10
47354;DHT22;50657;48.830;2.282;2022-08-21T07:36:29;25.70;45.10
47354;DHT22;50657;48.830;2.282;2022-08-21T07:38:57;25.70;45.00
47354;DHT22;50657;48.830;2.282;2022-08-21T07:41:27;25.70;45.00
47354;DHT22;50657;48.830;2.282;2022-08-21T07:43:55;25.80;45.00
47354;DHT22;50657;48.830;2.282;2022-08-21T07:46:23;25.80;44.90
47354;DHT22;50657;48.830;2.282;2022-08-21T07:48:50;25.90;44.90
47354;DHT22;50657;48.830;2.282;2022-08-21T07:51:22;25.90;44.80
47354;DHT22;50657;48.830;2.282;2022-08-21T07:53:52;26.00;44.80
47354;DHT22;50657;48.830;2.282;2022-08-21T07:56:20;26.00;44.70
47354;DHT22;50657;48.830;2.282;2022-08-21T07:58:48;26.00;44.60
47354;DHT22;50657;48.830;2.282;2022-08-21T08:01:15;26.10;44.60
47354;DHT22;50657;48.830;2.282;2022-08-21T08:03:42;26.10;44.50
47354;DHT22;50657;48.830;2.282;2022-08-21T08:06:09;26.10;44.50
47354;DHT22;50657;48.830;2.282;2022-08-21T08:08:38;26.20;44.40
47354;DHT22;50657;48.830;2.282;2022-08-21T08:11:06;26.20;44.40
47354;DHT22;50657;48.830;2.282;2022-08-21T08:13:40;26.20;44.30
47354;DHT22;50657;48.830;2.282;2022-08-21T08:16:07;26.20;44.20
47354;DHT22;50657;48.830;2.282;2022-08-21T08:18:34;26.30;44.20
47354;DHT22;50657;48.830;2.282;2022-08-21T08:21:02;26.30;44.70
47354;DHT22;50657;48.830;2.282;2022-08-21T08:23:29;26.30;44.00
47354;DHT22;50657;48.830;2.282;2022-08-21T08:25:56;26.40;44.00
47354;DHT22;50657;48.830;2.282;2022-08-21T08:28:24;26.40;44.00
47354;DHT22;50657;48.830;2.282;2022-08-21T08:30:53;26.40;43.80
47354;DHT22;50657;48.830;2.282;2022-08-21T08:33:20;26.50;43.80
47354;DHT22;50657;48.830;2.282;2022-08-21T08:35:50;26.50;43.80
47354;DHT22;50657;48.830;2.282;2022-08-21T08:38:18;26.50;43.80
47354;DHT22;50657;48.830;2.282;2022-08-21T08:40:49;26.60;43.70
47354;DHT22;50657;48.830;2.282;2022-08-21T08:43:18;26.60;43.60
47354;DHT22;50657;48.830;2.282;2022-08-21T08:45:49;26.60;43.60
47354;DHT22;50657;48.830;2.282;2022-08-21T08:48:31;26.70;43.50
47354;DHT22;50657;48.830;2.282;2022-08-21T08:51:01;26.70;43.40
47354;DHT22;50657;48.830;2.282;2022-08-21T08:53:33;26.70;43.40
47354;DHT22;50657;48.830;2.282;2022-08-21T08:56:01;26.70;43.40
47354;DHT22;50657;48.830;2.282;2022-08-21T08:58:31;26.70;43.30
47354;DHT22;50657;48.830;2.282;2022-08-21T09:00:59;26.80;43.90
47354;DHT22;50657;48.830;2.282;2022-08-21T09:03:28;26.80;43.20
47354;DHT22;50657;48.830;2.282;2022-08-21T09:05:58;26.80;43.20
47354;DHT22;50657;48.830;2.282;2022-08-21T09:08:46;26.80;43.10
47354;DHT22;50657;48.830;2.282;2022-08-21T09:11:25;26.90;43.10
47354;DHT22;50657;48.830;2.282;2022-08-21T09:14:00;26.90;43.00
47354;DHT22;50657;48.830;2.282;2022-08-21T09:16:46;26.90;43.00
47354;DHT22;50657;48.830;2.282;2022-08-21T09:19:26;26.90;42.90
47354;DHT22;50657;48.830;2.282;2022-08-21T09:22:03;27.00;43.00
47354;DHT22;50657;48.830;2.282;2022-08-21T09:24:42;27.00;43.00
47354;DHT22;50657;48.830;2.282;2022-08-21T09:27:15;27.00;43.00
47354;DHT22;50657;48.830;2.282;2022-08-21T09:29:45;27.00;43.50
47354;DHT22;50657;48.830;2.282;2022-08-21T09:32:16;27.00;42.80
47354;DHT22;50657;48.830;2.282;2022-08-21T09:34:55;27.00;42.80
47354;DHT22;50657;48.830;2.282;2022-08-21T09:37:24;27.10;42.80
47354;DHT22;50657;48.830;2.282;2022-08-21T09:39:51;27.10;42.80
47354;DHT22;50657;48.830;2.282;2022-08-21T09:42:23;27.10;42.70
47354;DHT22;50657;48.830;2.282;2022-08-21T09:45:08;27.10;42.60
47354;DHT22;50657;48.830;2.282;2022-08-21T09:47:36;27.10;42.60
47354;DHT22;50657;48.830;2.282;2022-08-21T09:50:16;27.10;42.60
47354;DHT22;50657;48.830;2.282;2022-08-21T09:52:46;27.20;42.60
47354;DHT22;50657;48.830;2.282;2022-08-21T09:55:23;27.20;42.50
47354;DHT22;50657;48.830;2.282;2022-08-21T09:58:09;27.20;42.50
47354;DHT22;50657;48.830;2.282;2022-08-21T10:00:36;27.20;42.50
47354;DHT22;50657;48.830;2.282;2022-08-21T10:03:12;27.20;42.50
47354;DHT22;50657;48.830;2.282;2022-08-21T10:05:51;27.30;42.50
47354;DHT22;50657;48.830;2.282;2022-08-21T10:08:20;27.30;42.40
47354;DHT22;50657;48.830;2.282;2022-08-21T10:10:51;27.30;42.50
47354;DHT22;50657;48.830;2.282;2022-08-21T10:13:22;27.30;42.40
47354;DHT22;50657;48.830;2.282;2022-08-21T10:16:00;27.40;42.50
47354;DHT22;50657;48.830;2.282;2022-08-21T10:18:38;27.40;42.40
47354;DHT22;50657;48.830;2.282;2022-08-21T10:21:10;27.40;42.30
47354;DHT22;50657;48.830;2.282;2022-08-21T10:24:00;27.40;42.30
47354;DHT22;50657;48.830;2.282;2022-08-21T10:26:39;27.40;42.80
47354;DHT22;50657;48.830;2.282;2022-08-21T10:29:17;27.40;42.20
47354;DHT22;50657;48.830;2.282;2022-08-21T10:31:54;27.40;42.20
47354;DHT22;50657;48.830;2.282;2022-08-21T10:34:33;27.40;42.20
47354;DHT22;50657;48.830;2.282;2022-08-21T10:37:18;27.50;42.20
47354;DHT22;50657;48.830;2.282;2022-08-21T10:39:56;27.50;42.10
47354;DHT22;50657;48.830;2.282;2022-08-21T10:42:33;27.50;42.10
47354;DHT22;50657;48.830;2.282;2022-08-21T10:45:14;27.50;42.00
47354;DHT22;50657;48.830;2.282;2022-08-21T10:47:46;27.50;42.10
47354;DHT22;50657;48.830;2.282;2022-08-21T10:50:23;27.50;42.00
47354;DHT22;50657;48.830;2.282;2022-08-21T10:53:04;27.60;42.00
47354;DHT22;50657;48.830;2.282;2022-08-21T10:55:35;27.60;42.00
47354;DHT22;50657;48.830;2.282;2022-08-21T10:58:08;27.60;42.00
47354;DHT22;50657;48.830;2.282;2022-08-21T11:00:41;27.60;42.10
47354;DHT22;50657;48.830;2.282;2022-08-21T11:03:14;27.60;42.00
47354;DHT22;50657;48.830;2.282;2022-08-21T11:05:47;27.60;42.00
47354;DHT22;50657;48.830;2.282;2022-08-21T11:08:21;27.70;42.00
47354;DHT22;50657;48.830;2.282;2022-08-21T11:10:53;27.70;42.00
47354;DHT22;50657;48.830;2.282;2022-08-21T11:13:27;27.70;41.90
47354;DHT22;50657;48.830;2.282;2022-08-21T11:16:02;27.70;41.90
47354;DHT22;50657;48.830;2.282;2022-08-21T11:18:35;27.70;41.80
47354;DHT22;50657;48.830;2.282;2022-08-21T11:21:15;27.70;41.80
47354;DHT22;50657;48.830;2.282;2022-08-21T11:23:53;27.70;41.70
47354;DHT22;50657;48.830;2.282;2022-08-21T11:26:28;27.80;41.80
47354;DHT22;50657;48.830;2.282;2022-08-21T11:29:02;27.80;41.80
47354;DHT22;50657;48.830;2.282;2022-08-21T11:31:39;27.80;41.70
47354;DHT22;50657;48.830;2.282;2022-08-21T11:34:18;27.80;41.80
47354;DHT22;50657;48.830;2.282;2022-08-21T11:36:55;27.80;41.70
47354;DHT22;50657;48.830;2.282;2022-08-21T11:39:35;27.80;41.70
47354;DHT22;50657;48.830;2.282;2022-08-21T11:42:12;27.90;41.70
47354;DHT22;50657;48.830;2.282;2022-08-21T11:44:49;27.80;41.60
47354;DHT22;50657;48.830;2.282;2022-08-21T11:47:27;27.90;41.60
47354;DHT22;50657;48.830;2.282;2022-08-21T11:50:06;27.90;41.60
47354;DHT22;50657;48.830;2.282;2022-08-21T11:52:45;27.90;41.60
47354;DHT22;50657;48.830;2.282;2022-08-21T11:55:19;27.90;41.50
47354;DHT22;50657;48.830;2.282;2022-08-21T11:57:54;27.90;41.50
47354;DHT22;50657;48.830;2.282;2022-08-21T12:00:25;28.00;41.50
47354;DHT22;50657;48.830;2.282;2022-08-21T12:02:55;28.00;41.50
47354;DHT22;50657;48.830;2.282;2022-08-21T12:05:27;28.00;41.50
47354;DHT22;50657;48.830;2.282;2022-08-21T12:08:03;28.00;41.40
47354;DHT22;50657;48.830;2.282;2022-08-21T12:10:37;28.10;41.40
47354;DHT22;50657;48.830;2.282;2022-08-21T12:13:08;28.10;41.50
47354;DHT22;50657;48.830;2.282;2022-08-21T12:15:37;28.00;41.30
47354;DHT22;50657;48.830;2.282;2022-08-21T12:18:23;28.10;41.40
47354;DHT22;50657;48.830;2.282;2022-08-21T12:21:04;28.10;41.30
47354;DHT22;50657;48.830;2.282;2022-08-21T12:23:42;28.10;41.30
47354;DHT22;50657;48.830;2.282;2022-08-21T12:26:23;28.10;41.30
47354;DHT22;50657;48.830;2.282;2022-08-21T12:28:51;28.20;41.40
47354;DHT22;50657;48.830;2.282;2022-08-21T12:31:27;28.20;41.40
47354;DHT22;50657;48.830;2.282;2022-08-21T12:33:58;28.30;41.40
47354;DHT22;50657;48.830;2.282;2022-08-21T12:36:35;28.30;41.40
47354;DHT22;50657;48.830;2.282;2022-08-21T12:39:12;28.30;41.40
47354;DHT22;50657;48.830;2.282;2022-08-21T12:41:47;28.30;41.30
47354;DHT22;50657;48.830;2.282;2022-08-21T12:44:16;28.30;41.30
47354;DHT22;50657;48.830;2.282;2022-08-21T12:46:48;28.30;41.30
47354;DHT22;50657;48.830;2.282;2022-08-21T12:49:25;28.30;41.40
47354;DHT22;50657;48.830;2.282;2022-08-21T12:51:56;28.40;41.40
47354;DHT22;50657;48.830;2.282;2022-08-21T12:54:27;28.40;41.30
47354;DHT22;50657;48.830;2.282;2022-08-21T12:56:58;28.40;41.30
47354;DHT22;50657;48.830;2.282;2022-08-21T12:59:26;28.40;41.20
47354;DHT22;50657;48.830;2.282;2022-08-21T13:01:54;28.40;41.20
47354;DHT22;50657;48.830;2.282;2022-08-21T13:04:33;28.40;41.20
47354;DHT22;50657;48.830;2.282;2022-08-21T13:07:06;28.40;41.10
47354;DHT22;50657;48.830;2.282;2022-08-21T13:09:41;28.50;41.20
47354;DHT22;50657;48.830;2.282;2022-08-21T13:12:11;28.50;41.20
47354;DHT22;50657;48.830;2.282;2022-08-21T13:14:41;28.50;41.20
47354;DHT22;50657;48.830;2.282;2022-08-21T13:17:10;28.50;41.20
47354;DHT22;50657;48.830;2.282;2022-08-21T13:19:37;28.50;41.20
47354;DHT22;50657;48.830;2.282;2022-08-21T13:22:12;28.50;41.20
47354;DHT22;50657;48.830;2.282;2022-08-21T13:24:39;28.60;41.20
47354;DHT22;50657;48.830;2.282;2022-08-21T13:27:18;28.60;41.20
47354;DHT22;50657;48.830;2.282;2022-08-21T13:29:45;28.60;41.20
47354;DHT22;50657;48.830;2.282;2022-08-21T13:32:19;28.60;41.20
47354;DHT22;50657;48.830;2.282;2022-08-21T13:34:49;28.60;41.20
47354;DHT22;50657;48.830;2.282;2022-08-21T13:37:17;28.60;41.20
47354;DHT22;50657;48.830;2.282;2022-08-21T13:39:49;28.60;41.30
47354;DHT22;50657;48.830;2.282;2022-08-21T13:42:19;28.70;41.30
47354;DHT22;50657;48.830;2.282;2022-08-21T13:44:52;28.70;41.20
47354;DHT22;50657;48.830;2.282;2022-08-21T13:47:19;28.70;41.20
47354;DHT22;50657;48.830;2.282;2022-08-21T13:49:49;28.70;41.20
47354;DHT22;50657;48.830;2.282;2022-08-21T13:52:18;28.70;41.20
47354;DHT22;50657;48.830;2.282;2022-08-21T13:54:53;28.80;41.20
47354;DHT22;50657;48.830;2.282;2022-08-21T13:57:27;28.80;41.20
47354;DHT22;50657;48.830;2.282;2022-08-21T14:00:11;28.80;41.10
47354;DHT22;50657;48.830;2.282;2022-08-21T14:02:40;28.80;41.10
47354;DHT22;50657;48.830;2.282;2022-08-21T14:05:16;28.80;41.10
47354;DHT22;50657;48.830;2.282;2022-08-21T14:07:46;28.90;41.10
47354;DHT22;50657;48.830;2.282;2022-08-21T14:10:17;28.90;41.10
47354;DHT22;50657;48.830;2.282;2022-08-21T14:12:50;28.90;41.10
47354;DHT22;50657;48.830;2.282;2022-08-21T14:15:23;29.00;41.10
47354;DHT22;50657;48.830;2.282;2022-08-21T14:17:50;29.00;41.10
47354;DHT22;50657;48.830;2.282;2022-08-21T14:20:28;29.00;41.10
47354;DHT22;50657;48.830;2.282;2022-08-21T14:22:56;29.00;41.10
47354;DHT22;50657;48.830;2.282;2022-08-21T14:25:36;29.00;41.10
47354;DHT22;50657;48.830;2.282;2022-08-21T14:28:15;29.10;41.10
47354;DHT22;50657;48.830;2.282;2022-08-21T14:30:46;29.10;41.10
47354;DHT22;50657;48.830;2.282;2022-08-21T14:33:21;29.10;41.10
47354;DHT22;50657;48.830;2.282;2022-08-21T14:35:49;29.10;41.00
47354;DHT22;50657;48.830;2.282;2022-08-21T14:38:18;29.10;41.00
47354;DHT22;50657;48.830;2.282;2022-08-21T14:40:49;29.10;41.00
47354;DHT22;50657;48.830;2.282;2022-08-21T14:43:19;29.10;40.90
47354;DHT22;50657;48.830;2.282;2022-08-21T14:45:46;29.10;40.90
47354;DHT22;50657;48.830;2.282;2022-08-21T14:48:14;29.10;40.90
47354;DHT22;50657;48.830;2.282;2022-08-21T14:50:41;29.10;40.90
47354;DHT22;50657;48.830;2.282;2022-08-21T14:53:09;29.10;41.00
47354;DHT22;50657;48.830;2.282;2022-08-21T14:55:37;29.20;40.90
47354;DHT22;50657;48.830;2.282;2022-08-21T14:58:20;29.20;40.90
47354;DHT22;50657;48.830;2.282;2022-08-21T15:00:49;29.20;41.50
47354;DHT22;50657;48.830;2.282;2022-08-21T15:03:16;29.20;40.80
47354;DHT22;50657;48.830;2.282;2022-08-21T15:05:43;29.30;40.90
47354;DHT22;50657;48.830;2.282;2022-08-21T15:08:10;29.30;40.90
47354;DHT22;50657;48.830;2.282;2022-08-21T15:10:37;29.20;40.80
47354;DHT22;50657;48.830;2.282;2022-08-21T15:13:05;29.30;41.50
47354;DHT22;50657;48.830;2.282;2022-08-21T15:15:38;29.30;40.80
47354;DHT22;50657;48.830;2.282;2022-08-21T15:18:06;29.30;40.80
47354;DHT22;50657;48.830;2.282;2022-08-21T15:20:33;29.30;40.80
47354;DHT22;50657;48.830;2.282;2022-08-21T15:23:00;29.30;41.30
47354;DHT22;50657;48.830;2.282;2022-08-21T15:25:27;29.40;40.70
47354;DHT22;50657;48.830;2.282;2022-08-21T15:27:55;29.40;40.70
47354;DHT22;50657;48.830;2.282;2022-08-21T15:30:22;29.30;40.60
47354;DHT22;50657;48.830;2.282;2022-08-21T15:32:50;29.40;40.60
47354;DHT22;50657;48.830;2.282;2022-08-21T15:35:18;29.40;40.60
47354;DHT22;50657;48.830;2.282;2022-08-21T15:37:45;29.40;40.60
47354;DHT22;50657;48.830;2.282;2022-08-21T15:40:12;29.40;41.20
47354;DHT22;50657;48.830;2.282;2022-08-21T15:42:41;29.40;40.60
47354;DHT22;50657;48.830;2.282;2022-08-21T15:45:10;29.40;40.60
47354;DHT22;50657;48.830;2.282;2022-08-21T15:47:43;29.50;40.70
47354;DHT22;50657;48.830;2.282;2022-08-21T15:50:12;29.50;40.60